Time;durP1;ratioP1;P1;durP2;ratioP2;P2;SDS_P1;SDS_P2;PMS_P1;PMS_P2;Temp;Humidity;BMP_temperature;BMP_pressure;BME280_temperature;BME280_humidity;BME280_pressure;Samples;Min_cycle;Max_cycle;Signal;HPM_P1;HPM_P2
2022/04/24 00:03:20;;;;;;;43.70;24.40;;;;;;;5.56;66.26;97731.67;220388;1273;26495;-73
2022/04/24 00:08:22;;;;;;;37.80;24.10;;;;;;;5.55;66.47;97726.65;220046;1273;525587;-72
2022/04/24 00:13:25;;;;;;;37.90;23.80;;;;;;;5.52;66.50;97716.20;220674;1273;22544;-72
2022/04/24 00:18:30;;;;;;;38.30;25.20;;;;;;;5.49;66.66;97707.41;220534;1273;22651;-73
2022/04/24 00:23:53;;;;;;;39.50;24.00;;;;;;;5.45;67.23;97706.23;220576;1274;22724;-71
2022/04/24 00:29:01;;;;;;;39.50;24.80;;;;;;;5.44;67.52;97701.61;220532;1273;23314;-72
2022/04/24 00:34:03;;;;;;;36.50;23.90;;;;;;;5.45;67.57;97694.91;220474;1274;22553;-72
2022/04/24 00:39:06;;;;;;;39.00;25.60;;;;;;;5.45;67.48;97694.45;220360;1274;25258;-71
2022/04/24 00:44:15;;;;;;;42.20;27.20;;;;;;;5.47;67.74;97686.55;220454;1275;22546;-71
2022/04/24 00:49:41;;;;;;;39.20;26.20;;;;;;;5.46;67.92;97682.20;220447;1274;22638;-71
2022/04/24 00:54:45;;;;;;;42.40;27.20;;;;;;;5.46;68.04;97678.23;220675;1274;22720;-72
2022/04/24 00:59:48;;;;;;;44.80;29.30;;;;;;;5.49;68.33;97670.48;220488;1275;23367;-72
2022/04/24 01:05:01;;;;;;;43.00;27.60;;;;;;;5.59;68.25;97664.39;220382;1274;25649;-72
2022/04/24 01:10:08;;;;;;;44.90;28.40;;;;;;;5.75;68.59;97664.83;220481;1273;22600;-72
2022/04/24 01:15:18;;;;;;;42.80;27.70;;;;;;;5.92;68.98;97664.22;220417;1274;22563;-72
2022/04/24 01:20:24;;;;;;;42.40;26.80;;;;;;;6.06;68.92;97658.80;220404;1273;22584;-72
2022/04/24 01:25:38;;;;;;;42.80;27.50;;;;;;;6.18;68.72;97654.13;220594;1273;25319;-72
2022/04/24 01:30:52;;;;;;;47.20;28.70;;;;;;;6.20;68.35;97652.72;220444;1274;22544;-72
2022/04/24 01:35:57;;;;;;;47.10;29.30;;;;;;;6.14;68.17;97648.65;220363;1274;25375;-72
2022/04/24 01:41:01;;;;;;;47.50;29.40;;;;;;;6.08;68.32;97648.68;220370;1274;22547;-72
2022/04/24 01:46:09;;;;;;;40.30;26.80;;;;;;;5.99;68.44;97646.67;220504;1273;24146;-72
2022/04/24 01:51:14;;;;;;;41.70;25.80;;;;;;;5.97;68.66;97642.96;220680;1273;26454;-73
2022/04/24 01:56:18;;;;;;;43.90;25.10;;;;;;;6.03;68.91;97641.61;220770;1273;22582;-72
2022/04/24 02:01:23;;;;;;;38.40;23.70;;;;;;;6.12;68.86;97637.41;220740;1273;24266;-72
2022/04/24 02:06:28;;;;;;;37.20;23.70;;;;;;;6.18;69.26;97628.70;220766;1273;25456;-72
2022/04/24 02:11:38;;;;;;;32.00;22.10;;;;;;;6.26;69.36;97617.53;220791;1274;22607;-73
2022/04/24 02:16:41;;;;;;;32.00;22.20;;;;;;;6.35;69.13;97611.50;220777;1273;25342;-73
2022/04/24 02:21:50;;;;;;;35.40;23.30;;;;;;;6.42;69.24;97598.00;220367;1273;23352;-71
2022/04/24 02:26:53;;;;;;;35.90;24.20;;;;;;;6.49;69.41;97586.27;220751;1273;23834;-73
2022/04/24 02:32:04;;;;;;;35.70;23.10;;;;;;;6.51;69.24;97581.79;220710;1273;24089;-72
2022/04/24 02:37:06;;;;;;;35.20;23.00;;;;;;;6.58;69.53;97583.16;221009;1273;25905;-72
2022/04/24 02:42:10;;;;;;;36.10;23.70;;;;;;;6.64;69.72;97575.19;220706;1273;23824;-72
2022/04/24 02:47:26;;;;;;;34.60;25.00;;;;;;;6.65;69.25;97581.44;220531;1273;25540;-71
2022/04/24 02:52:50;;;;;;;39.20;25.00;;;;;;;6.64;69.64;97587.90;220572;1273;22592;-72
2022/04/24 02:57:54;;;;;;;37.70;24.80;;;;;;;6.65;69.73;97579.43;220383;1273;23841;-73
2022/04/24 03:03:07;;;;;;;39.80;24.80;;;;;;;6.70;69.67;97579.24;220482;1273;22704;-73
2022/04/24 03:08:15;;;;;;;39.30;25.10;;;;;;;6.82;69.83;97574.25;220470;1273;22619;-73
2022/04/24 03:13:20;;;;;;;37.20;24.00;;;;;;;6.92;69.65;97569.94;220498;1273;22546;-72
2022/04/24 03:18:23;;;;;;;34.80;23.20;;;;;;;6.97;69.58;97567.02;220307;1273;22722;-72
2022/04/24 03:23:26;;;;;;;34.50;22.50;;;;;;;6.99;69.45;97563.30;220468;1273;25366;-72
2022/04/24 03:28:57;;;;;;;28.40;17.80;;;;;;;7.05;69.45;97557.65;220208;1273;24396;-73
2022/04/24 03:33:59;;;;;;;24.20;16.80;;;;;;;7.16;69.57;97560.33;220413;1274;22823;-72
2022/04/24 03:39:04;;;;;;;24.70;16.90;;;;;;;7.26;69.47;97557.90;220191;1274;22532;-72
2022/04/24 03:44:13;;;;;;;28.00;18.60;;;;;;;7.38;69.74;97552.55;220176;1275;22678;-73
2022/04/24 03:49:16;;;;;;;26.30;18.50;;;;;;;7.48;69.45;97552.69;220374;1274;22601;-73
2022/04/24 03:54:19;;;;;;;31.60;19.80;;;;;;;7.52;69.37;97552.64;220404;1274;22738;-73
2022/04/24 03:59:31;;;;;;;25.90;18.60;;;;;;;7.51;69.30;97561.67;220314;1276;24284;-73
2022/04/24 04:04:37;;;;;;;25.30;16.90;;;;;;;7.53;69.01;97559.39;220163;1275;26554;-73
2022/04/24 04:09:40;;;;;;;25.90;17.40;;;;;;;7.53;69.20;97557.27;220198;1274;22627;-72
2022/04/24 04:14:44;;;;;;;24.60;16.70;;;;;;;7.56;69.55;97561.45;220854;1273;22535;-72
2022/04/24 04:19:47;;;;;;;22.80;16.40;;;;;;;7.68;69.75;97568.95;220646;1273;22583;-72
2022/04/24 04:24:59;;;;;;;28.80;17.80;;;;;;;7.75;70.25;97572.90;220566;1273;22554;-72
2022/04/24 04:30:02;;;;;;;23.00;16.50;;;;;;;7.76;69.58;97572.26;220637;1273;25287;-73
2022/04/24 04:35:22;;;;;;;21.10;15.70;;;;;;;7.67;69.38;97570.10;220478;1273;25232;-72
2022/04/24 04:40:31;;;;;;;20.60;15.00;;;;;;;7.63;69.97;97558.61;220491;1273;22733;-72
2022/04/24 04:45:45;;;;;;;17.90;14.40;;;;;;;7.72;70.06;97555.01;220447;1273;22561;-72
2022/04/24 04:50:57;;;;;;;19.00;14.00;;;;;;;7.84;70.22;97565.30;220797;1273;25254;-73
2022/04/24 04:56:02;;;;;;;19.60;13.70;;;;;;;7.89;70.04;97571.08;220364;1274;22587;-72
2022/04/24 05:01:06;;;;;;;17.70;13.50;;;;;;;7.91;70.12;97571.67;220585;1273;23298;-73
2022/04/24 05:06:09;;;;;;;20.50;14.70;;;;;;;7.99;70.35;97565.48;221186;1273;22697;-73
2022/04/24 05:11:28;;;;;;;18.40;13.50;;;;;;;8.07;70.62;97568.81;220619;1273;22522;-73
2022/04/24 05:16:43;;;;;;;20.20;14.70;;;;;;;8.14;70.55;97577.23;220530;1273;22625;-73
2022/04/24 05:21:54;;;;;;;19.10;15.90;;;;;;;8.11;71.12;97577.65;220823;1274;24381;-72
2022/04/24 05:26:57;;;;;;;22.10;16.50;;;;;;;8.08;71.67;97575.91;220668;1273;25145;-73
2022/04/24 05:32:10;;;;;;;21.60;17.20;;;;;;;8.12;72.42;97571.54;220208;1275;24309;-72
2022/04/24 05:37:13;;;;;;;23.50;18.50;;;;;;;8.09;72.22;97563.61;220320;1275;22605;-73
2022/04/24 05:42:15;;;;;;;23.60;18.80;;;;;;;8.03;72.82;97560.89;220429;1274;26293;-73
2022/04/24 05:47:25;;;;;;;22.60;18.20;;;;;;;7.98;72.87;97562.02;220478;1275;23044;-72
2022/04/24 05:52:44;;;;;;;25.20;20.20;;;;;;;7.96;73.29;97556.63;220382;1275;22581;-73
2022/04/24 05:57:51;;;;;;;29.40;22.70;;;;;;;7.93;73.96;97543.14;220398;1276;22638;-73
2022/04/24 06:02:54;;;;;;;29.00;23.00;;;;;;;8.00;74.39;97540.55;220360;1274;23653;-73
2022/04/24 06:07:57;;;;;;;25.70;19.20;;;;;;;8.04;74.61;97537.18;220440;1274;22694;-73
2022/04/24 06:13:01;;;;;;;20.80;17.30;;;;;;;8.06;74.65;97534.27;220477;1273;22563;-73
2022/04/24 06:18:07;;;;;;;22.20;17.90;;;;;;;7.99;75.22;97528.98;220465;1274;22574;-73
2022/04/24 06:23:09;;;;;;;23.80;18.00;;;;;;;7.98;75.55;97528.15;220632;1274;22593;-74
2022/04/24 06:28:11;;;;;;;21.80;17.40;;;;;;;7.97;75.82;97531.16;220427;1273;22742;-73
2022/04/24 06:33:17;;;;;;;20.00;15.40;;;;;;;7.97;76.08;97526.67;220160;1275;22593;-73
2022/04/24 06:38:23;;;;;;;23.90;18.10;;;;;;;7.96;76.38;97520.89;220616;1274;22551;-73
2022/04/24 06:43:30;;;;;;;22.80;18.00;;;;;;;7.96;76.44;97518.98;220423;1274;22724;-72
2022/04/24 06:48:35;;;;;;;22.30;17.10;;;;;;;7.93;76.49;97516.41;220251;1274;22717;-73
2022/04/24 06:54:08;;;;;;;18.10;14.60;;;;;;;7.96;76.61;97515.56;220316;1276;22606;-73
2022/04/24 06:59:11;;;;;;;19.20;15.60;;;;;;;8.05;77.17;97511.15;220092;1276;22610;-72
2022/04/24 07:04:35;;;;;;;18.20;14.60;;;;;;;8.17;77.37;97507.19;220216;1275;24319;-73
2022/04/24 07:10:24;;;;;;;18.90;12.50;;;;;;;8.28;77.23;97510.48;220575;1274;25455;-73
2022/04/24 07:15:59;;;;;;;19.00;14.10;;;;;;;8.46;77.24;97503.84;220450;1274;24329;-73
2022/04/24 07:21:02;;;;;;;16.80;13.90;;;;;;;8.61;77.30;97497.76;220500;1274;25418;-72
2022/04/24 07:26:11;;;;;;;16.20;12.70;;;;;;;8.65;76.76;97488.22;220670;1274;22563;-72
2022/04/24 07:31:19;;;;;;;15.30;12.20;;;;;;;8.69;77.12;97482.65;220463;1273;22538;-73
2022/04/24 07:36:32;;;;;;;16.80;13.30;;;;;;;8.76;77.07;97482.27;220696;1273;22573;-72
2022/04/24 07:41:40;;;;;;;15.30;11.60;;;;;;;8.79;76.91;97484.41;220458;1273;24289;-73
2022/04/24 07:46:52;;;;;;;16.70;12.80;;;;;;;8.88;77.12;97485.94;220433;1274;22798;-72
2022/04/24 07:52:01;;;;;;;17.10;12.60;;;;;;;8.89;76.75;97487.41;220515;1274;22776;-72
2022/04/24 07:57:08;;;;;;;15.70;12.70;;;;;;;8.90;77.22;97478.46;220521;1273;24293;-73
2022/04/24 08:02:13;;;;;;;14.90;12.40;;;;;;;9.01;77.10;97475.88;220417;1273;24925;-72
2022/04/24 08:07:27;;;;;;;15.30;12.30;;;;;;;9.00;76.87;97476.48;220482;1273;25453;-73
2022/04/24 08:12:32;;;;;;;15.40;12.40;;;;;;;9.02;76.96;97479.17;220246;1276;25868;-73
2022/04/24 08:17:39;;;;;;;15.50;12.10;;;;;;;9.06;76.95;97474.03;220402;1274;25338;-73
2022/04/24 08:22:48;;;;;;;16.20;13.00;;;;;;;9.09;76.93;97477.35;220439;1274;25254;-72
2022/04/24 08:27:53;;;;;;;14.10;11.70;;;;;;;9.06;76.88;97479.14;220446;1274;25385;-73
2022/04/24 08:32:55;;;;;;;17.00;13.40;;;;;;;8.98;76.86;97475.48;220300;1276;22538;-73
2022/04/24 08:38:01;;;;;;;14.00;11.70;;;;;;;8.88;77.08;97472.73;220210;1274;22620;-72
2022/04/24 08:43:04;;;;;;;16.00;13.20;;;;;;;8.85;77.24;97468.14;220273;1274;26419;-72
2022/04/24 08:48:07;;;;;;;15.40;12.20;;;;;;;8.84;77.52;97461.45;220414;1276;22559;-74
2022/04/24 08:53:11;;;;;;;15.10;11.90;;;;;;;8.83;77.74;97451.42;220350;1277;22550;-71
2022/04/24 08:58:18;;;;;;;16.70;13.00;;;;;;;8.86;77.79;97452.55;220345;1275;25305;-72
2022/04/24 09:03:42;;;;;;;17.60;14.10;;;;;;;8.92;78.02;97452.52;220314;1274;24320;-72
2022/04/24 09:08:45;;;;;;;20.90;15.90;;;;;;;8.96;77.90;97445.93;219754;1276;25419;-73
2022/04/24 09:14:15;;;;;;;;;;;;;;;9.00;78.21;97442.61;220344;1274;25497;-72
2022/04/24 09:19:21;;;;;;;19.00;14.50;;;;;;;9.04;78.22;97439.60;220470;1274;22812;-72
2022/04/24 09:24:37;;;;;;;18.70;14.50;;;;;;;9.16;78.27;97431.70;220504;1277;22790;-72
2022/04/24 09:29:51;;;;;;;16.80;12.00;;;;;;;9.30;78.19;97425.33;220407;1276;22537;-74
2022/04/24 09:34:55;;;;;;;16.90;12.30;;;;;;;9.43;78.02;97421.25;220264;1275;22617;-72
2022/04/24 09:39:58;;;;;;;13.70;11.50;;;;;;;9.53;77.70;97420.55;220373;1275;22605;-73
2022/04/24 09:45:01;;;;;;;15.70;12.50;;;;;;;9.63;77.38;97414.17;220291;1274;25364;-72
2022/04/24 09:50:29;;;;;;;16.20;12.60;;;;;;;9.74;77.41;97405.33;220288;1274;25305;-72
2022/04/24 09:55:38;;;;;;;15.30;12.00;;;;;;;9.84;77.18;97403.77;220330;1275;24268;-73
2022/04/24 10:00:42;;;;;;;14.60;11.60;;;;;;;9.92;77.10;97400.92;220221;1275;22536;-73
2022/04/24 10:06:15;;;;;;;15.30;11.40;;;;;;;10.03;76.99;97396.70;220578;1275;22686;-73
2022/04/24 10:11:34;;;;;;;13.70;11.10;;;;;;;10.16;76.74;97388.16;220390;1274;24370;-72
2022/04/24 10:17:26;;;;;;;18.30;13.20;;;;;;;10.28;76.94;97391.56;220575;1277;22959;-72
2022/04/24 10:22:40;;;;;;;15.10;11.60;;;;;;;10.41;76.86;97387.67;220252;1274;25372;-71
2022/04/24 10:27:50;;;;;;;15.20;12.60;;;;;;;10.65;77.10;97384.23;220708;1275;22712;-72
2022/04/24 10:33:24;;;;;;;14.50;11.80;;;;;;;11.01;76.92;97383.04;220400;1276;22698;-73
2022/04/24 10:38:44;;;;;;;14.10;11.40;;;;;;;11.11;76.29;97368.87;220329;1278;22591;-72
2022/04/24 10:44:18;;;;;;;13.50;11.40;;;;;;;11.16;75.57;97363.04;220504;1276;22550;-72
2022/04/24 10:49:25;;;;;;;23.70;15.10;;;;;;;11.25;75.63;97361.77;220353;1275;25380;-72
2022/04/24 10:54:38;;;;;;;;;;;;;;;11.37;75.43;97346.13;220250;1276;22697;-73
2022/04/24 10:59:48;;;;;;;38.70;20.70;;;;;;;11.47;75.24;97330.50;220416;1277;25388;-73
2022/04/24 11:05:07;;;;;;;18.00;13.30;;;;;;;11.72;75.33;97330.34;220534;1274;22585;-72
2022/04/24 11:10:22;;;;;;;14.00;12.10;;;;;;;11.81;74.25;97330.34;220526;1274;24338;-72
2022/04/24 11:15:28;;;;;;;15.50;12.40;;;;;;;11.87;74.34;97322.48;220635;1277;22596;-73
2022/04/24 11:20:31;;;;;;;15.40;11.70;;;;;;;11.93;73.90;97321.86;220467;1277;24216;-73
2022/04/24 11:25:38;;;;;;;17.10;13.40;;;;;;;12.05;74.18;97320.89;220727;1275;25314;-72
2022/04/24 11:30:41;;;;;;;15.80;12.70;;;;;;;12.26;74.07;97322.56;220469;1275;25381;-72
2022/04/24 11:35:43;;;;;;;13.50;10.70;;;;;;;12.50;74.04;97324.70;220376;1280;22600;-72
2022/04/24 11:40:59;;;;;;;12.50;10.80;;;;;;;12.75;73.53;97326.39;220492;1274;25260;-72
2022/04/24 11:51:33;;;;;;;12.70;10.00;;;;;;;12.77;72.72;97317.23;220219;1279;24329;-72
2022/04/24 11:56:40;;;;;;;13.80;10.00;;;;;;;12.82;72.81;97310.52;220244;1279;22617;-72
2022/04/24 12:01:56;;;;;;;13.20;9.90;;;;;;;13.18;73.23;97303.65;220214;1274;24419;-73
2022/04/24 12:07:09;;;;;;;11.10;9.10;;;;;;;13.67;72.71;97299.92;220158;1275;246010;-72
2022/04/24 12:12:18;;;;;;;12.10;8.70;;;;;;;13.98;71.50;97285.70;220357;1278;25244;-73
2022/04/24 12:17:23;;;;;;;10.50;8.60;;;;;;;14.06;70.71;97265.91;220159;1275;25402;-72
2022/04/24 12:22:30;;;;;;;9.80;8.20;;;;;;;14.14;70.58;97258.87;220393;1275;25543;-74
2022/04/24 12:27:32;;;;;;;9.60;7.60;;;;;;;14.25;70.21;97251.02;220306;1275;22537;-73
2022/04/24 12:32:36;;;;;;;12.50;8.70;;;;;;;14.22;69.76;97251.20;220305;1275;24211;-73
2022/04/24 12:37:46;;;;;;;8.70;7.80;;;;;;;14.06;69.57;97243.20;220366;1274;23482;-74
2022/04/24 12:42:53;;;;;;;9.90;7.70;;;;;;;13.84;69.45;97239.45;220168;1275;24380;-72
2022/04/24 12:47:55;;;;;;;10.70;7.80;;;;;;;13.65;69.76;97229.77;220115;1275;25359;-72
2022/04/24 12:53:01;;;;;;;8.80;7.70;;;;;;;13.62;70.32;97218.92;220233;1275;23293;-73
2022/04/24 12:58:03;;;;;;;8.30;7.20;;;;;;;13.66;70.52;97221.41;220058;1278;22596;-73
2022/04/24 13:03:06;;;;;;;9.90;7.00;;;;;;;13.66;70.49;97211.98;220182;1279;22569;-73
2022/04/24 13:08:08;;;;;;;8.20;6.90;;;;;;;13.70;70.57;97195.53;220103;1275;22547;-72
2022/04/24 13:13:10;;;;;;;8.30;7.20;;;;;;;13.90;70.58;97192.91;220505;1275;22560;-72
2022/04/24 13:18:12;;;;;;;9.10;7.10;;;;;;;14.11;70.09;97189.24;220684;1275;24402;-73
2022/04/24 13:23:15;;;;;;;8.20;6.90;;;;;;;14.23;69.74;97181.75;220549;1274;22564;-73
2022/04/24 13:28:17;;;;;;;8.90;7.50;;;;;;;14.26;69.22;97176.10;220551;1274;25252;-73
2022/04/24 13:33:19;;;;;;;10.10;7.80;;;;;;;14.16;68.93;97169.67;220166;1274;25443;-73
2022/04/24 13:38:26;;;;;;;10.70;8.70;;;;;;;14.07;69.06;97153.23;220256;1275;22722;-73
2022/04/24 13:43:34;;;;;;;11.10;8.70;;;;;;;13.94;69.27;97143.96;220272;1274;22574;-73
2022/04/24 13:48:49;;;;;;;9.60;8.20;;;;;;;13.91;69.85;97139.04;220174;1278;24229;-73
2022/04/24 13:53:51;;;;;;;13.40;8.40;;;;;;;13.90;69.92;97131.25;220275;1274;24392;-71
2022/04/24 13:58:55;;;;;;;11.80;9.30;;;;;;;13.87;69.92;97120.64;220352;1276;22666;-71
2022/04/24 14:03:57;;;;;;;11.70;9.30;;;;;;;13.81;70.17;97108.29;220378;1274;24359;-73
2022/04/24 14:09:04;;;;;;;10.80;9.40;;;;;;;13.71;70.34;97113.66;220433;1274;22600;-73
2022/04/24 14:14:06;;;;;;;11.40;8.60;;;;;;;13.57;70.58;97110.52;220556;1274;22657;-72
2022/04/24 14:19:08;;;;;;;12.10;9.20;;;;;;;13.39;71.11;97106.09;220541;1274;26170;-73
2022/04/24 14:24:21;;;;;;;10.80;8.10;;;;;;;13.28;71.60;97102.24;220495;1274;22599;-74
2022/04/24 14:29:45;;;;;;;14.50;11.80;;;;;;;13.25;72.04;97105.86;220138;1277;24616;-73
2022/04/24 14:35:03;;;;;;;12.20;9.30;;;;;;;13.46;72.85;97100.10;220374;1274;22772;-72
2022/04/24 14:40:06;;;;;;;12.10;8.80;;;;;;;14.00;72.85;97094.54;220423;1276;22583;-72
2022/04/24 14:45:08;;;;;;;9.90;7.70;;;;;;;14.46;71.94;97090.55;220201;1277;25317;-72
2022/04/24 14:55:45;;;;;;;12.60;8.50;;;;;;;14.50;70.59;97124.29;220194;1274;25018;-73
2022/04/24 15:00:47;;;;;;;10.60;8.40;;;;;;;14.30;70.52;97101.25;220225;1275;22608;-73
2022/04/24 15:05:49;;;;;;;11.30;8.80;;;;;;;14.07;70.79;97103.31;220360;1274;24289;-73
2022/04/24 15:10:52;;;;;;;12.90;9.40;;;;;;;13.85;71.19;97102.45;220574;1273;25364;-74
2022/04/24 15:15:54;;;;;;;12.30;9.10;;;;;;;13.69;71.60;97117.08;220862;1273;22596;-72
2022/04/24 15:21:00;;;;;;;12.80;8.70;;;;;;;13.60;71.83;97110.55;220349;1273;22608;-73
2022/04/24 15:26:02;;;;;;;10.10;8.00;;;;;;;13.58;71.99;97110.73;220513;1276;23305;-73
2022/04/24 15:31:09;;;;;;;11.10;8.00;;;;;;;13.53;72.08;97109.48;220208;1275;22557;-73
2022/04/24 15:36:11;;;;;;;10.50;8.10;;;;;;;13.46;72.34;97123.00;220349;1274;22534;-72
2022/04/24 15:41:17;;;;;;;12.50;8.70;;;;;;;13.41;72.66;97117.73;220297;1275;22667;-72
2022/04/24 15:46:20;;;;;;;12.60;9.10;;;;;;;13.39;73.12;97142.65;220472;1275;22673;-72
2022/04/24 15:51:24;;;;;;;17.00;11.90;;;;;;;13.26;73.61;97169.20;220385;1275;22550;-72
2022/04/24 15:56:27;;;;;;;12.90;9.70;;;;;;;13.05;73.94;97166.66;220371;1274;22625;-72
2022/04/24 16:01:31;;;;;;;14.20;10.10;;;;;;;12.92;74.38;97150.27;220314;1274;22533;-73
2022/04/24 16:06:34;;;;;;;14.70;10.50;;;;;;;12.83;74.48;97142.04;220439;1274;24228;-73
2022/04/24 16:11:37;;;;;;;15.90;11.30;;;;;;;12.74;74.82;97155.69;220469;1274;22679;-73
2022/04/24 16:16:45;;;;;;;19.10;13.50;;;;;;;12.63;74.92;97172.80;220302;1274;24401;-72
2022/04/24 16:21:48;;;;;;;15.30;11.20;;;;;;;12.47;75.14;97154.55;220569;1274;24081;-72
2022/04/24 16:26:54;;;;;;;15.00;10.50;;;;;;;12.36;75.40;97138.59;220692;1274;23094;-73
2022/04/24 16:32:14;;;;;;;17.80;11.00;;;;;;;12.33;75.53;97143.02;220243;1274;22622;-73
2022/04/24 16:37:29;;;;;;;12.40;8.70;;;;;;;12.29;75.70;97166.77;220188;1274;22583;-71
2022/04/24 16:42:33;;;;;;;6.00;4.60;;;;;;;12.16;74.88;97190.72;220255;1275;22548;-73
2022/04/24 16:47:40;;;;;;;8.50;4.90;;;;;;;12.00;74.33;97214.92;220222;1275;23883;-73
2022/04/24 17:08:56;;;;;;;7.90;4.70;;;;;;;11.24;75.57;97215.46;220323;1273;24384;-73
2022/04/24 17:13:58;;;;;;;5.50;3.80;;;;;;;11.13;76.12;97207.97;220398;1274;24273;-73
2022/04/24 17:19:02;;;;;;;4.50;3.30;;;;;;;11.04;76.52;97197.80;220446;1274;22596;-74
2022/04/24 17:24:05;;;;;;;6.60;4.20;;;;;;;10.93;76.54;97202.46;220625;1274;24230;-75
2022/04/24 17:29:15;;;;;;;6.40;4.30;;;;;;;10.81;76.90;97212.30;220213;1274;25279;-72
2022/04/24 17:34:17;;;;;;;7.40;4.80;;;;;;;10.70;77.24;97223.73;220424;1275;25339;-72
2022/04/24 17:39:21;;;;;;;5.80;3.90;;;;;;;10.58;77.62;97219.16;220413;1274;25059;-74
2022/04/24 17:44:23;;;;;;;6.80;5.70;;;;;;;10.51;78.00;97202.24;220519;1274;22569;-73
2022/04/24 17:49:27;;;;;;;8.80;5.80;;;;;;;10.45;78.26;97207.48;220426;1274;22580;-73
2022/04/24 17:54:30;;;;;;;11.70;8.10;;;;;;;10.41;78.77;97207.02;220384;1274;22622;-73
2022/04/24 17:59:36;;;;;;;15.00;9.10;;;;;;;10.36;79.01;97200.69;220522;1275;22550;-72
2022/04/24 18:04:39;;;;;;;11.90;8.30;;;;;;;10.30;79.03;97189.15;220695;1274;22542;-73
2022/04/24 18:09:43;;;;;;;13.60;7.80;;;;;;;10.22;78.96;97186.55;220694;1274;25595;-73
2022/04/24 18:14:46;;;;;;;7.90;6.40;;;;;;;10.14;79.36;97196.33;220967;1273;22616;-73
2022/04/24 18:19:50;;;;;;;8.90;7.40;;;;;;;10.06;79.53;97214.75;220479;1274;22569;-71
2022/04/24 18:24:56;;;;;;;9.80;7.00;;;;;;;9.99;79.60;97214.61;220753;1273;24968;-73
2022/04/24 18:30:04;;;;;;;12.00;7.40;;;;;;;9.92;79.78;97222.59;220644;1274;22681;-74
2022/04/24 18:35:07;;;;;;;12.40;8.00;;;;;;;9.84;79.93;97235.23;220304;1275;25370;-73
2022/04/24 18:40:19;;;;;;;60.50;40.40;;;;;;;9.75;80.14;97242.20;220303;1274;22741;-73
2022/04/24 18:45:28;;;;;;;20.80;13.50;;;;;;;9.68;80.43;97247.86;220378;1274;22580;-73
2022/04/24 18:50:39;;;;;;;16.20;11.40;;;;;;;9.61;80.66;97254.66;220410;1274;24353;-73
2022/04/24 18:55:46;;;;;;;16.60;11.40;;;;;;;9.57;80.88;97252.67;220348;1275;22530;-73
2022/04/24 19:00:52;;;;;;;16.80;10.80;;;;;;;9.52;81.04;97255.54;220524;1275;25276;-73
2022/04/24 19:11:20;;;;;;;22.10;14.80;;;;;;;9.40;81.20;97269.56;220271;1274;24225;-73
2022/04/24 19:16:23;;;;;;;27.90;17.80;;;;;;;9.36;81.45;97274.04;220476;1275;25257;-72
2022/04/24 19:21:29;;;;;;;27.30;18.60;;;;;;;9.31;81.31;97282.69;220423;1274;22569;-73
2022/04/24 19:26:37;;;;;;;29.20;18.50;;;;;;;9.24;81.34;97283.91;220474;1274;22545;-73
2022/04/24 19:31:44;;;;;;;128.50;93.40;;;;;;;9.16;81.46;97285.48;220500;1274;22550;-72
2022/04/24 19:37:02;;;;;;;33.20;23.10;;;;;;;9.06;81.47;97283.23;220405;1274;22702;-73
2022/04/24 19:42:18;;;;;;;27.50;18.70;;;;;;;8.98;81.63;97288.05;220360;1274;22687;-72
2022/04/24 19:47:24;;;;;;;27.20;18.40;;;;;;;8.90;81.84;97281.28;220334;1274;24435;-73
2022/04/24 19:52:26;;;;;;;28.50;19.00;;;;;;;8.83;81.87;97280.08;220441;1274;25268;-72
2022/04/24 19:57:42;;;;;;;31.20;19.30;;;;;;;8.76;82.16;97273.27;220455;1274;22562;-73
2022/04/24 20:03:14;;;;;;;31.30;20.10;;;;;;;8.66;82.07;97261.67;220312;1274;24306;-73
2022/04/24 20:08:28;;;;;;;33.70;22.40;;;;;;;8.57;82.28;97261.48;220387;1273;25316;-73
2022/04/24 20:13:40;;;;;;;34.40;23.40;;;;;;;8.47;82.46;97262.63;220394;1273;22557;-73
2022/04/24 20:18:42;;;;;;;43.10;28.80;;;;;;;8.37;82.68;97273.38;220257;1273;23017;-73
2022/04/24 20:23:58;;;;;;;41.70;29.10;;;;;;;8.27;82.67;97283.30;220551;1273;24364;-73
2022/04/24 20:29:05;;;;;;;;;;;;;;;8.16;82.70;97290.66;220428;1274;22518;-73
2022/04/24 20:34:07;;;;;;;36.90;22.90;;;;;;;8.05;82.88;97296.88;220406;1274;22537;-73
2022/04/24 20:39:15;;;;;;;34.10;22.70;;;;;;;7.95;83.02;97300.80;220245;1274;22548;-72
2022/04/24 20:44:18;;;;;;;31.20;21.20;;;;;;;7.86;83.12;97300.87;220264;1274;24317;-73
2022/04/24 20:49:20;;;;;;;33.80;20.00;;;;;;;7.81;83.65;97307.52;220300;1275;22690;-74
2022/04/24 20:54:23;;;;;;;28.30;18.20;;;;;;;7.78;83.64;97318.86;220369;1274;22612;-73
2022/04/24 20:59:25;;;;;;;28.20;17.40;;;;;;;7.75;83.66;97321.69;220358;1275;24340;-73
2022/04/24 21:04:30;;;;;;;26.40;17.80;;;;;;;7.71;83.79;97326.79;220261;1276;22476;-73
2022/04/24 21:09:36;;;;;;;29.00;17.20;;;;;;;7.67;84.03;97321.94;220370;1274;22662;-73
2022/04/24 21:14:38;;;;;;;29.10;18.30;;;;;;;7.65;84.27;97314.80;220339;1273;24285;-73
2022/04/24 21:20:01;;;;;;;30.80;18.70;;;;;;;7.63;84.38;97314.20;220417;1273;22563;-73
2022/04/24 21:25:09;;;;;;;30.40;17.60;;;;;;;7.62;84.51;97310.86;220597;1273;25321;-73
2022/04/24 21:30:12;;;;;;;28.50;18.30;;;;;;;7.59;84.59;97309.88;220282;1275;23165;-72
2022/04/24 21:35:17;;;;;;;33.00;20.60;;;;;;;7.55;84.66;97307.54;220278;1274;24287;-73
2022/04/24 21:40:32;;;;;;;37.80;22.10;;;;;;;7.50;85.03;97315.21;220319;1275;25274;-72
2022/04/24 21:45:35;;;;;;;41.50;24.60;;;;;;;7.47;85.44;97318.58;220393;1274;22551;-73
2022/04/24 21:50:45;;;;;;;46.70;27.30;;;;;;;7.42;85.71;97318.11;220278;1274;23088;-73
2022/04/24 21:55:47;;;;;;;41.70;26.90;;;;;;;7.35;85.55;97321.54;220340;1275;22566;-74
2022/04/24 22:01:02;;;;;;;42.90;26.30;;;;;;;7.24;85.30;97329.44;220234;1275;24319;-73
2022/04/24 22:06:28;;;;;;;43.20;25.30;;;;;;;7.10;85.15;97333.56;220313;1274;22492;-73
2022/04/24 22:11:34;;;;;;;41.70;26.70;;;;;;;6.99;85.02;97341.30;220335;1274;23837;-72
2022/04/24 22:16:36;;;;;;;40.60;26.00;;;;;;;6.92;85.32;97352.75;220591;1274;22591;-72
2022/04/24 22:27:08;;;;;;;41.60;26.90;;;;;;;6.82;85.95;97353.58;220548;1273;22570;-74
2022/04/24 22:32:15;;;;;;;39.50;26.50;;;;;;;6.81;85.86;97359.56;220294;1274;22550;-72
2022/04/24 22:37:36;;;;;;;45.60;25.60;;;;;;;6.79;85.93;97357.52;220442;1275;25262;-73
2022/04/24 22:42:39;;;;;;;38.50;24.20;;;;;;;6.78;86.19;97353.13;220333;1275;25204;-73
2022/04/24 22:47:44;;;;;;;41.30;24.80;;;;;;;6.76;86.06;97351.09;220248;1274;22635;-72
2022/04/24 22:52:49;;;;;;;40.30;24.90;;;;;;;6.74;86.14;97355.45;220341;1276;25518;-73
2022/04/24 22:57:53;;;;;;;38.50;23.10;;;;;;;6.72;86.02;97359.92;220457;1274;22543;-72
2022/04/24 23:02:56;;;;;;;36.10;23.30;;;;;;;6.72;86.34;97355.88;220278;1275;24142;-72
2022/04/24 23:07:59;;;;;;;37.90;23.40;;;;;;;6.72;86.44;97350.59;220484;1274;23383;-72
2022/04/24 23:13:06;;;;;;;35.50;22.30;;;;;;;6.73;86.48;97347.12;220563;1273;22718;-72
2022/04/24 23:23:58;;;;;;;32.00;21.40;;;;;;;6.73;86.62;97342.95;220392;1273;25270;-72
2022/04/24 23:29:01;;;;;;;30.10;20.40;;;;;;;6.73;86.77;97339.45;220391;1275;25454;-72
2022/04/24 23:34:16;;;;;;;32.20;21.40;;;;;;;6.73;86.86;97341.48;220359;1274;24311;-72
2022/04/24 23:39:37;;;;;;;31.20;21.40;;;;;;;6.74;86.65;97338.10;220320;1275;23350;-72
2022/04/24 23:44:42;;;;;;;28.80;19.50;;;;;;;6.76;86.71;97329.55;220389;1274;22659;-71
2022/04/24 23:49:45;;;;;;;30.80;20.00;;;;;;;6.79;86.99;97321.98;220263;1275;25478;-72
2022/04/24 23:54:49;;;;;;;28.90;19.90;;;;;;;6.83;86.97;97329.92;220312;1276;25490;-72
2022/04/24 23:59:54;;;;;;;33.40;21.70;;;;;;;6.84;86.96;97336.93;220346;1275;25342;-73
